Time;durP1;ratioP1;P1;durP2;ratioP2;P2;SDS_P1;SDS_P2;PMS_P1;PMS_P2;Temp;Humidity;BMP_temperature;BMP_pressure;BME280_temperature;BME280_humidity;BME280_pressure;Samples;Min_cycle;Max_cycle;Signal;HPM_P1;HPM_P2
2022/03/26 00:00:52;;;;;;;29.70;14.05;;;;;;;8.16;64.39;103034.47;5051846;28;20036;-73
2022/03/26 00:03:17;;;;;;;30.33;14.48;;;;;;;8.12;64.41;103036.50;5051894;28;20407;-73
2022/03/26 00:05:43;;;;;;;28.92;14.60;;;;;;;8.10;64.41;103033.16;5051791;28;20046;-73
2022/03/26 00:08:09;;;;;;;30.23;12.65;;;;;;;7.99;64.58;103018.09;5050357;28;20105;-73
2022/03/26 00:10:36;;;;;;;28.38;13.57;;;;;;;8.03;64.92;103039.94;5050418;28;20461;-73
2022/03/26 00:13:02;;;;;;;29.10;13.45;;;;;;;8.01;64.78;103039.22;5051362;28;20058;-73
2022/03/26 00:15:28;;;;;;;29.85;13.45;;;;;;;7.95;65.13;103034.41;5051741;28;20099;-73
2022/03/26 00:17:53;;;;;;;31.27;14.85;;;;;;;7.96;65.11;103031.59;5051057;28;20510;-73
2022/03/26 00:20:19;;;;;;;29.33;13.50;;;;;;;7.90;65.17;103025.00;5051601;28;20048;-73
2022/03/26 00:22:44;;;;;;;29.08;14.32;;;;;;;7.91;65.17;103023.16;5051533;28;20091;-73
2022/03/26 00:25:13;;;;;;;33.83;13.73;;;;;;;7.90;65.06;103026.81;5050185;28;20392;-73
2022/03/26 00:27:38;;;;;;;28.63;12.80;;;;;;;7.88;65.62;103026.91;5051234;28;20037;-73
2022/03/26 00:30:04;;;;;;;28.48;13.52;;;;;;;7.84;65.75;103029.97;5051149;28;20049;-73
2022/03/26 00:32:30;;;;;;;28.27;12.88;;;;;;;7.76;65.97;103024.44;5051811;28;20065;-73
2022/03/26 00:34:57;;;;;;;27.77;14.35;;;;;;;7.76;66.04;103029.75;5049923;28;20033;-73
2022/03/26 00:37:23;;;;;;;34.97;15.52;;;;;;;7.71;65.87;103032.78;5051285;28;20107;-73
2022/03/26 00:39:48;;;;;;;28.92;12.18;;;;;;;7.66;66.47;103035.78;5051321;28;20045;-73
2022/03/26 00:42:15;;;;;;;26.00;13.23;;;;;;;7.62;66.43;103034.38;5051075;28;20076;-73
2022/03/26 00:44:40;;;;;;;28.23;13.90;;;;;;;7.56;67.15;103034.00;5051193;28;20029;-73
2022/03/26 00:47:06;;;;;;;29.40;13.85;;;;;;;7.49;66.72;103023.00;5051014;28;20040;-73
2022/03/26 00:49:32;;;;;;;27.05;13.27;;;;;;;7.50;66.93;103030.03;5050899;28;20036;-73
2022/03/26 00:51:57;;;;;;;30.55;13.60;;;;;;;7.43;67.22;103021.69;5050924;28;20028;-73
2022/03/26 00:54:23;;;;;;;33.15;14.57;;;;;;;7.40;67.10;103021.13;5049574;28;20067;-73
2022/03/26 00:56:49;;;;;;;30.13;12.70;;;;;;;7.39;67.32;103016.78;5050789;28;20135;-73
2022/03/26 00:59:14;;;;;;;27.42;14.43;;;;;;;7.38;67.69;103023.88;5050918;28;20116;-73
2022/03/26 01:01:40;;;;;;;26.27;12.10;;;;;;;7.34;68.25;103018.97;5050895;28;20065;-73
2022/03/26 01:04:05;;;;;;;27.30;13.23;;;;;;;7.27;68.05;103020.41;5050684;28;20058;-73
2022/03/26 01:06:30;;;;;;;28.70;12.30;;;;;;;7.19;68.26;103015.69;5050881;28;20065;-73
2022/03/26 01:08:56;;;;;;;28.25;13.65;;;;;;;7.11;68.21;103023.41;5050544;28;20061;-73
2022/03/26 01:11:22;;;;;;;31.60;14.38;;;;;;;7.01;68.70;103012.66;5050621;28;20090;-73
2022/03/26 01:13:49;;;;;;;28.48;12.88;;;;;;;6.84;68.84;103003.38;5049369;28;20040;-73
2022/03/26 01:16:14;;;;;;;28.77;14.38;;;;;;;6.76;69.12;103003.97;5049070;28;20040;-73
2022/03/26 01:18:41;;;;;;;31.38;12.95;;;;;;;6.83;69.70;103014.09;5050497;28;20388;-73
2022/03/26 01:21:06;;;;;;;29.55;14.13;;;;;;;6.77;69.72;103013.59;5050467;28;20090;-73
2022/03/26 01:23:32;;;;;;;30.52;14.07;;;;;;;6.70;69.32;103020.34;5050420;28;20535;-73
2022/03/26 01:25:58;;;;;;;29.88;12.05;;;;;;;6.60;70.00;103014.03;5050393;28;20048;-73
2022/03/26 01:28:24;;;;;;;29.50;12.75;;;;;;;6.45;71.09;103024.03;5049516;28;20029;-73
2022/03/26 01:30:50;;;;;;;27.33;12.82;;;;;;;6.40;71.71;103020.03;5031773;28;20068;-73
2022/03/26 01:33:15;;;;;;;30.15;15.25;;;;;;;6.43;71.55;103022.44;5048770;28;20112;-73
2022/03/26 01:35:40;;;;;;;26.50;12.50;;;;;;;6.50;71.18;103027.19;5048869;28;20215;-73
2022/03/26 01:38:07;;;;;;;29.02;12.13;;;;;;;6.43;71.22;103003.91;5050193;28;20032;-73
2022/03/26 01:40:34;;;;;;;27.13;13.82;;;;;;;6.55;71.03;103027.69;5049703;28;20040;-73
2022/03/26 01:42:59;;;;;;;29.92;14.23;;;;;;;6.54;71.07;103028.63;5049983;28;20033;-73
2022/03/26 01:45:27;;;;;;;38.00;14.05;;;;;;;6.55;71.04;103030.31;5050060;28;20104;-74
2022/03/26 01:47:52;;;;;;;29.05;13.75;;;;;;;6.54;70.83;103020.66;5049775;28;20033;-73
2022/03/26 01:50:17;;;;;;;25.85;12.05;;;;;;;6.51;71.50;103014.75;5049481;28;20036;-73
2022/03/26 01:52:43;;;;;;;28.33;13.45;;;;;;;6.59;71.42;103023.81;5049467;28;20040;-73
2022/03/26 01:55:08;;;;;;;28.63;13.25;;;;;;;6.58;71.57;103021.28;5049553;28;20075;-73
2022/03/26 01:57:34;;;;;;;29.40;14.32;;;;;;;6.60;71.61;103027.31;5049436;28;20043;-73
2022/03/26 02:00:00;;;;;;;28.15;15.90;;;;;;;6.64;71.12;103026.13;5049333;28;20020;-73
2022/03/26 02:02:25;;;;;;;35.55;14.60;;;;;;;6.60;71.43;103016.69;5049218;28;20071;-73
2022/03/26 02:04:51;;;;;;;29.52;13.20;;;;;;;6.63;71.52;103020.91;5049237;28;20476;-73
2022/03/26 02:07:17;;;;;;;27.05;13.10;;;;;;;6.58;71.32;103032.75;5049345;28;20029;-73
2022/03/26 02:09:43;;;;;;;28.73;13.05;;;;;;;6.53;71.82;103026.94;5049297;28;20031;-73
2022/03/26 02:12:23;;;;;;;29.23;14.30;;;;;;;6.51;71.21;103031.50;5048037;28;20025;-73
2022/03/26 02:14:49;;;;;;;36.28;12.88;;;;;;;6.45;71.69;103021.38;5049065;28;20063;-73
2022/03/26 02:17:16;;;;;;;27.10;12.18;;;;;;;6.49;71.62;103033.41;5049093;28;20028;-73
2022/03/26 02:19:47;;;;;;;31.08;14.77;;;;;;;6.44;72.13;103024.97;5049174;28;20025;-73
2022/03/26 02:22:12;;;;;;;27.02;12.02;;;;;;;6.41;72.72;103019.06;5049111;28;20039;-74
2022/03/26 02:24:38;;;;;;;27.83;11.45;;;;;;;6.30;72.23;103020.72;5047613;28;20111;-74
2022/03/26 02:27:07;;;;;;;29.17;14.02;;;;;;;6.26;72.68;103024.56;5047791;28;20048;-73
2022/03/26 02:29:32;;;;;;;25.58;12.35;;;;;;;6.20;72.85;103018.88;5048665;28;20060;-73
2022/03/26 02:31:57;;;;;;;29.90;11.43;;;;;;;6.10;72.61;103024.88;5047717;28;20067;-73
2022/03/26 02:34:24;;;;;;;30.35;14.02;;;;;;;6.06;73.22;103022.56;5048987;28;20485;-73
2022/03/26 02:36:53;;;;;;;25.30;13.57;;;;;;;6.02;73.97;103016.63;5049015;28;20533;-73
2022/03/26 02:39:19;;;;;;;26.98;13.20;;;;;;;6.11;73.28;103023.06;5047507;28;20029;-73
2022/03/26 02:41:44;;;;;;;28.00;12.63;;;;;;;6.13;73.43;103024.63;5048468;28;20476;-73
2022/03/26 02:44:09;;;;;;;25.02;12.98;;;;;;;6.03;73.48;103005.06;5048686;28;20483;-74
2022/03/26 02:46:37;;;;;;;28.40;14.77;;;;;;;6.07;73.73;103013.63;5048827;28;20036;-73
2022/03/26 02:49:02;;;;;;;27.95;12.73;;;;;;;6.07;73.38;103022.41;5048637;28;20017;-73
2022/03/26 02:51:28;;;;;;;26.15;12.52;;;;;;;6.07;73.60;103022.41;5048674;28;20037;-73
2022/03/26 02:53:53;;;;;;;33.78;14.85;;;;;;;6.07;73.35;103026.88;5048820;28;20029;-73
2022/03/26 02:56:19;;;;;;;30.27;13.27;;;;;;;6.03;73.48;103028.91;5048668;28;20388;-73
2022/03/26 02:58:46;;;;;;;27.77;12.27;;;;;;;5.97;73.28;103020.56;5048610;28;20052;-73
2022/03/26 03:01:13;;;;;;;27.23;11.93;;;;;;;5.94;73.65;103021.63;5048600;28;20045;-73
2022/03/26 03:03:38;;;;;;;26.60;13.45;;;;;;;5.90;73.59;103018.34;5048881;28;20098;-73
2022/03/26 03:06:04;;;;;;;30.88;14.20;;;;;;;5.85;73.79;103017.84;5047386;28;20435;-73
2022/03/26 03:08:29;;;;;;;26.08;13.07;;;;;;;5.82;73.73;103012.75;5048542;28;20033;-75
2022/03/26 03:10:54;;;;;;;35.15;12.30;;;;;;;5.82;74.03;103015.41;5048628;28;20033;-73
2022/03/26 03:13:21;;;;;;;25.45;12.50;;;;;;;5.81;74.42;103013.72;5048108;28;20206;-73
2022/03/26 03:15:50;;;;;;;29.00;12.98;;;;;;;5.82;74.21;103022.53;5048531;28;20082;-73
2022/03/26 03:18:17;;;;;;;29.77;12.82;;;;;;;5.79;73.99;103020.06;5048431;28;20028;-73
2022/03/26 03:20:42;;;;;;;28.30;12.55;;;;;;;5.75;74.33;103010.69;5048518;28;20499;-73
2022/03/26 03:23:07;;;;;;;30.88;14.00;;;;;;;5.78;74.29;103019.22;5047064;28;20029;-73
2022/03/26 03:25:33;;;;;;;28.52;12.05;;;;;;;5.75;74.42;103021.25;5048293;28;21839;-73
2022/03/26 03:27:58;;;;;;;36.15;13.48;;;;;;;5.64;73.79;103014.94;5046973;28;20118;-75
2022/03/26 03:30:26;;;;;;;29.42;11.95;;;;;;;5.56;74.11;103027.88;5046557;28;20140;-73
2022/03/26 03:32:51;;;;;;;26.13;10.75;;;;;;;5.41;74.36;103032.47;5048500;28;20024;-73
2022/03/26 03:35:17;;;;;;;26.38;12.02;;;;;;;5.34;74.89;103027.72;5047059;28;20036;-73
2022/03/26 03:37:43;;;;;;;28.45;13.35;;;;;;;5.32;75.44;103037.56;5048763;28;20095;-73
2022/03/26 03:40:09;;;;;;;29.75;13.23;;;;;;;5.33;76.10;103036.63;5048333;28;20314;-74
2022/03/26 03:42:35;;;;;;;34.88;13.98;;;;;;;5.36;76.13;103031.94;5048124;28;20451;-73
2022/03/26 03:45:01;;;;;;;32.60;13.77;;;;;;;5.40;76.18;103032.59;5048223;28;20116;-73
2022/03/26 03:47:27;;;;;;;30.55;14.38;;;;;;;5.39;75.48;103022.94;5048329;28;20400;-73
2022/03/26 03:49:52;;;;;;;35.38;13.52;;;;;;;5.42;75.75;103034.19;5046535;28;20037;-73
2022/03/26 03:52:17;;;;;;;31.63;13.80;;;;;;;5.41;75.86;103035.09;5049113;28;20028;-75
2022/03/26 03:54:43;;;;;;;29.00;12.63;;;;;;;5.38;75.89;103030.03;5050367;28;20033;-73
2022/03/26 03:57:08;;;;;;;28.20;12.32;;;;;;;5.30;76.05;103035.03;5051587;28;20044;-73
2022/03/26 03:59:34;;;;;;;28.38;13.32;;;;;;;5.28;77.00;103040.41;5051628;28;20024;-73
2022/03/26 04:01:59;;;;;;;24.35;12.68;;;;;;;5.24;76.50;103033.66;5051675;28;20029;-73
2022/03/26 04:04:25;;;;;;;33.00;15.77;;;;;;;5.19;76.67;103030.50;5051477;28;20025;-75
2022/03/26 04:06:50;;;;;;;31.52;15.07;;;;;;;5.23;76.74;103033.75;5051346;28;20380;-73
2022/03/26 04:09:15;;;;;;;24.58;11.82;;;;;;;5.28;76.84;103032.47;5051924;28;20033;-73
2022/03/26 04:11:41;;;;;;;28.73;11.60;;;;;;;5.30;76.77;103034.19;5051375;28;20059;-75
2022/03/26 04:14:06;;;;;;;29.33;13.32;;;;;;;5.30;76.55;103032.38;5033894;28;20056;-73
2022/03/26 04:16:32;;;;;;;28.95;13.70;;;;;;;5.23;76.23;103025.81;5051321;28;20032;-73
2022/03/26 04:18:58;;;;;;;30.17;14.85;;;;;;;5.27;76.31;103035.25;5051221;28;20029;-73
2022/03/26 04:21:24;;;;;;;26.13;12.57;;;;;;;5.21;76.77;103041.81;5051201;28;20052;-73
2022/03/26 04:23:49;;;;;;;28.73;14.68;;;;;;;5.17;76.93;103031.56;5049758;28;20472;-75
2022/03/26 04:26:15;;;;;;;31.45;14.45;;;;;;;5.19;76.25;103038.44;5050950;28;20032;-73
2022/03/26 04:28:40;;;;;;;28.33;13.82;;;;;;;5.16;76.99;103036.00;5051327;28;20037;-73
2022/03/26 04:31:05;;;;;;;31.42;12.07;;;;;;;5.20;76.91;103044.56;5049658;28;20508;-73
2022/03/26 04:33:31;;;;;;;30.10;15.20;;;;;;;5.23;76.65;103047.00;5050985;28;20111;-73
2022/03/26 04:35:57;;;;;;;31.35;15.05;;;;;;;5.22;76.88;103034.72;5051002;28;20051;-73
2022/03/26 04:38:22;;;;;;;32.22;14.57;;;;;;;5.23;77.25;103042.53;5050923;28;20033;-73
2022/03/26 04:40:50;;;;;;;30.92;14.25;;;;;;;5.23;76.73;103042.53;5049440;28;20503;-72
2022/03/26 04:43:16;;;;;;;28.83;13.02;;;;;;;5.18;76.80;103034.06;5050958;28;20044;-73
2022/03/26 04:45:42;;;;;;;27.55;12.13;;;;;;;5.18;77.06;103025.31;5050883;28;20108;-75
2022/03/26 04:48:07;;;;;;;29.65;12.23;;;;;;;5.17;76.81;103028.91;5050664;28;20166;-73
2022/03/26 04:50:33;;;;;;;30.65;15.60;;;;;;;5.17;76.77;103031.56;5050510;28;20112;-73
2022/03/26 04:52:58;;;;;;;30.38;12.45;;;;;;;5.13;77.09;103030.91;5050541;28;20488;-73
2022/03/26 04:55:24;;;;;;;29.17;12.73;;;;;;;5.01;77.63;103026.50;5050471;28;20075;-73
2022/03/26 04:57:50;;;;;;;34.40;15.07;;;;;;;4.98;78.17;103034.63;5050451;28;20048;-75
2022/03/26 05:00:17;;;;;;;29.90;13.02;;;;;;;4.89;78.11;103040.53;5049060;28;20392;-73
2022/03/26 05:02:44;;;;;;;26.92;11.93;;;;;;;4.80;78.37;103034.94;5050314;28;20033;-73
2022/03/26 05:05:12;;;;;;;26.85;14.63;;;;;;;4.76;78.83;103038.72;5050338;28;20438;-73
2022/03/26 05:07:47;;;;;;;31.92;13.98;;;;;;;4.72;79.00;103039.91;5050280;28;20025;-73
2022/03/26 05:10:23;;;;;;;33.42;13.60;;;;;;;4.64;79.39;103034.31;5050183;28;20037;-73
2022/03/26 05:12:49;;;;;;;30.02;12.43;;;;;;;4.57;79.77;103036.50;5050195;28;20033;-74
2022/03/26 05:15:17;;;;;;;27.58;14.43;;;;;;;4.58;79.65;103045.25;5033197;28;20112;-73
2022/03/26 05:17:42;;;;;;;31.17;12.15;;;;;;;4.50;79.69;103039.66;5049905;28;20043;-73
2022/03/26 05:20:11;;;;;;;26.95;14.68;;;;;;;4.43;79.60;103041.88;5050077;28;20033;-75
2022/03/26 05:22:38;;;;;;;35.33;15.50;;;;;;;4.41;80.10;103038.47;5049990;28;20044;-73
2022/03/26 05:25:03;;;;;;;32.38;14.35;;;;;;;4.47;79.73;103046.00;5049874;28;20025;-73
2022/03/26 05:27:29;;;;;;;26.08;13.13;;;;;;;4.48;79.48;103045.06;5048427;28;20403;-74
2022/03/26 05:29:55;;;;;;;26.67;12.48;;;;;;;4.50;79.54;103048.41;5048215;28;20060;-73
2022/03/26 05:32:20;;;;;;;36.72;14.93;;;;;;;4.51;79.51;103052.78;5049334;28;20078;-73
2022/03/26 05:34:46;;;;;;;30.52;14.15;;;;;;;4.57;79.74;103052.34;5048452;28;20032;-75
2022/03/26 05:37:12;;;;;;;30.05;14.57;;;;;;;4.60;79.43;103051.31;5049673;28;20033;-73
2022/03/26 05:39:38;;;;;;;36.92;14.30;;;;;;;4.71;78.69;103069.06;5048389;28;20484;-73
2022/03/26 05:42:04;;;;;;;28.85;12.90;;;;;;;4.71;78.81;103067.28;5049613;28;20036;-73
2022/03/26 05:44:30;;;;;;;30.95;16.23;;;;;;;4.73;78.96;103065.38;5048315;28;20556;-73
2022/03/26 05:46:55;;;;;;;30.42;12.00;;;;;;;4.73;78.31;103070.66;5049578;28;20197;-73
2022/03/26 05:49:21;;;;;;;27.27;14.07;;;;;;;4.80;78.19;103061.38;5049120;28;20028;-73
2022/03/26 05:51:47;;;;;;;26.90;13.13;;;;;;;4.78;78.17;103057.97;5048122;28;20044;-73
2022/03/26 05:54:13;;;;;;;29.17;13.13;;;;;;;4.93;77.73;103077.25;5048029;28;20053;-73
2022/03/26 05:56:39;;;;;;;33.70;14.73;;;;;;;4.97;77.21;103072.59;5049470;28;20537;-75
2022/03/26 05:59:06;;;;;;;32.65;13.73;;;;;;;5.03;76.84;103070.38;5049508;28;20040;-73
2022/03/26 06:01:34;;;;;;;28.35;13.10;;;;;;;5.09;76.54;103070.91;5049105;28;20052;-73
2022/03/26 06:03:59;;;;;;;34.72;15.88;;;;;;;5.14;76.44;103068.81;5047995;28;20675;-75
2022/03/26 06:06:25;;;;;;;33.05;15.98;;;;;;;5.19;75.95;103069.34;5049117;28;20068;-73
2022/03/26 06:08:51;;;;;;;30.52;13.20;;;;;;;5.25;75.72;103071.53;5049071;28;20074;-73
2022/03/26 06:11:16;;;;;;;29.80;16.45;;;;;;;5.33;75.37;103074.50;5049016;28;20091;-73
2022/03/26 06:13:42;;;;;;;27.17;11.68;;;;;;;5.46;75.02;103077.97;5047953;28;20472;-73
2022/03/26 06:16:07;;;;;;;32.35;13.85;;;;;;;5.69;74.84;103079.00;5047265;28;20033;-74
2022/03/26 06:18:33;;;;;;;31.55;14.25;;;;;;;5.85;73.98;103084.03;5048973;28;20438;-74
2022/03/26 06:21:00;;;;;;;28.67;14.07;;;;;;;5.87;73.81;103084.78;5049064;28;20036;-75
2022/03/26 06:23:25;;;;;;;32.05;15.15;;;;;;;5.87;73.75;103091.88;5049061;28;20021;-75
2022/03/26 06:25:51;;;;;;;34.33;15.52;;;;;;;5.87;74.39;103095.38;5047566;28;20040;-74
2022/03/26 06:28:19;;;;;;;30.88;14.68;;;;;;;5.89;74.08;103098.75;5048745;28;20040;-74
2022/03/26 06:30:46;;;;;;;33.63;15.27;;;;;;;5.94;74.69;103098.44;5048736;28;20212;-74
2022/03/26 06:33:13;;;;;;;40.88;17.85;;;;;;;6.07;73.86;103104.53;5048940;28;20032;-74
2022/03/26 06:35:38;;;;;;;31.63;15.38;;;;;;;6.16;73.53;103108.34;5047554;28;20041;-74
2022/03/26 06:38:04;;;;;;;34.33;16.00;;;;;;;6.23;73.93;103106.06;5047478;28;20024;-74
2022/03/26 06:40:30;;;;;;;35.25;16.92;;;;;;;6.28;73.19;103095.97;5048771;28;20263;-74
2022/03/26 06:42:55;;;;;;;35.17;16.88;;;;;;;6.35;73.25;103106.03;5047476;28;20032;-74
2022/03/26 06:45:21;;;;;;;42.00;17.17;;;;;;;6.39;73.10;103096.03;5048810;28;20032;-74
2022/03/26 06:47:46;;;;;;;33.78;15.45;;;;;;;6.52;73.08;103110.09;5048680;28;20489;-74
2022/03/26 06:50:12;;;;;;;34.92;16.27;;;;;;;6.67;73.40;103102.78;5048660;28;20037;-74
2022/03/26 06:52:37;;;;;;;37.95;19.73;;;;;;;6.83;72.00;103104.28;5048737;28;20029;-76
2022/03/26 06:55:05;;;;;;;35.45;17.35;;;;;;;6.99;71.78;103107.44;5047348;28;20044;-74
2022/03/26 06:57:31;;;;;;;42.35;19.23;;;;;;;7.12;71.10;103115.31;5048382;28;20036;-74
2022/03/26 06:59:56;;;;;;;39.20;18.48;;;;;;;7.14;71.02;103108.94;5048649;28;20025;-74
2022/03/26 07:02:21;;;;;;;37.88;15.82;;;;;;;7.24;70.07;103106.41;5049022;28;20123;-74
2022/03/26 07:04:47;;;;;;;37.17;16.52;;;;;;;7.30;70.40;103099.78;5048677;28;20025;-74
2022/03/26 07:07:13;;;;;;;35.78;16.95;;;;;;;7.35;70.76;103109.06;5048583;28;20062;-74
2022/03/26 07:09:38;;;;;;;39.03;20.02;;;;;;;7.43;69.53;103108.47;5048563;28;20033;-74
2022/03/26 07:12:04;;;;;;;33.28;15.98;;;;;;;7.47;70.39;103108.13;5047574;28;20048;-74
2022/03/26 07:14:29;;;;;;;38.58;17.92;;;;;;;7.58;69.77;103109.09;5047148;28;20036;-74
2022/03/26 07:16:55;;;;;;;36.88;18.48;;;;;;;7.67;69.00;103121.63;5048410;28;20032;-74
2022/03/26 07:19:21;;;;;;;36.08;18.15;;;;;;;7.69;69.02;103115.22;5048316;28;20036;-74
2022/03/26 07:21:47;;;;;;;45.35;21.13;;;;;;;7.74;68.67;103116.69;5047460;28;20033;-74
2022/03/26 07:24:12;;;;;;;37.13;18.73;;;;;;;7.80;68.69;103114.38;5047136;28;20036;-74
2022/03/26 07:26:37;;;;;;;36.58;18.13;;;;;;;7.88;68.91;103117.25;5048314;28;20079;-73
2022/03/26 07:29:03;;;;;;;36.38;19.05;;;;;;;8.00;68.13;103114.59;5051981;28;20037;-73
2022/03/26 07:31:28;;;;;;;38.78;18.60;;;;;;;8.04;68.00;103111.56;5050645;28;20064;-73
2022/03/26 07:33:54;;;;;;;42.10;20.92;;;;;;;8.28;68.02;103114.03;5050864;28;20605;-73
2022/03/26 07:36:19;;;;;;;34.53;17.70;;;;;;;8.51;67.88;103120.16;5052260;28;20033;-73
2022/03/26 07:38:45;;;;;;;31.98;17.83;;;;;;;8.58;67.50;103106.34;5052016;28;20486;-74
2022/03/26 07:41:11;;;;;;;35.90;17.70;;;;;;;8.74;66.96;103126.22;5052013;28;20021;-74
2022/03/26 07:43:36;;;;;;;32.30;16.55;;;;;;;8.84;66.78;103123.63;5051894;28;20384;-74
2022/03/26 07:46:01;;;;;;;37.33;18.15;;;;;;;8.94;66.46;103121.88;5051823;28;20393;-74
2022/03/26 07:48:27;;;;;;;34.42;18.63;;;;;;;9.03;66.22;103120.25;5052159;28;20052;-74
2022/03/26 07:50:52;;;;;;;32.10;17.48;;;;;;;9.18;66.10;103126.94;5051823;28;20146;-74
2022/03/26 07:53:18;;;;;;;35.78;17.77;;;;;;;9.29;66.25;103126.00;5051905;28;20033;-74
2022/03/26 07:55:44;;;;;;;40.33;19.58;;;;;;;9.41;66.10;103124.94;5051727;28;20498;-75
2022/03/26 07:58:09;;;;;;;38.75;16.70;;;;;;;9.56;66.00;103120.13;5051514;28;20433;-75
2022/03/26 08:00:35;;;;;;;36.30;16.55;;;;;;;9.70;64.92;103120.72;5051653;28;20081;-73
2022/03/26 08:03:00;;;;;;;35.53;16.60;;;;;;;9.88;64.28;103122.63;5050389;28;20067;-75
2022/03/26 08:05:27;;;;;;;34.20;15.45;;;;;;;9.95;63.79;103124.72;5050124;28;20048;-76
2022/03/26 08:07:52;;;;;;;36.40;18.02;;;;;;;9.96;63.20;103121.94;5051589;28;20374;-76
2022/03/26 08:10:18;;;;;;;32.25;15.82;;;;;;;10.11;64.03;103130.38;5051433;28;20036;-75
2022/03/26 08:12:43;;;;;;;30.77;14.32;;;;;;;10.34;61.94;103140.84;5051507;28;20033;-74
2022/03/26 08:15:09;;;;;;;30.13;16.27;;;;;;;10.54;62.26;103131.88;5049958;28;20032;-74
2022/03/26 08:17:34;;;;;;;37.10;18.90;;;;;;;10.67;61.52;103143.09;5051328;28;20039;-74
2022/03/26 08:20:00;;;;;;;30.17;14.73;;;;;;;10.78;60.37;103143.94;5051273;28;20047;-74
2022/03/26 08:22:25;;;;;;;30.08;14.40;;;;;;;10.80;60.62;103141.97;5051380;28;20087;-75
2022/03/26 08:24:51;;;;;;;35.05;15.52;;;;;;;10.82;59.54;103137.31;5066580;28;20580;-75
2022/03/26 08:27:16;;;;;;;33.70;16.90;;;;;;;10.92;59.94;103162.19;5051127;28;20037;-74
2022/03/26 08:29:42;;;;;;;33.95;17.38;;;;;;;10.97;60.14;103158.09;5049656;28;20076;-74
2022/03/26 08:32:07;;;;;;;35.15;18.35;;;;;;;11.16;59.52;103143.91;5050721;28;20055;-74
2022/03/26 08:34:33;;;;;;;37.53;17.00;;;;;;;11.40;58.26;103159.44;5049877;28;20025;-74
2022/03/26 08:36:58;;;;;;;34.90;15.23;;;;;;;11.31;58.91;103141.59;5050960;28;20476;-75
2022/03/26 08:39:24;;;;;;;31.40;16.45;;;;;;;11.37;58.17;103162.41;5050756;28;20024;-75
2022/03/26 08:41:49;;;;;;;31.15;16.88;;;;;;;11.37;57.96;103154.38;5049755;28;20029;-75
2022/03/26 08:44:15;;;;;;;30.25;16.90;;;;;;;11.46;58.73;103160.69;5050848;28;20029;-75
2022/03/26 08:46:40;;;;;;;39.20;24.27;;;;;;;11.60;58.58;103167.38;5050350;28;20029;-74
2022/03/26 08:49:06;;;;;;;48.60;37.55;;;;;;;11.70;58.39;103168.19;5050604;28;20052;-74
2022/03/26 08:51:31;;;;;;;37.72;23.30;;;;;;;11.76;57.58;103167.63;5050756;28;20055;-75
2022/03/26 08:53:57;;;;;;;32.78;16.80;;;;;;;11.81;57.83;103165.31;5050734;28;20491;-75
2022/03/26 08:56:22;;;;;;;31.98;18.17;;;;;;;11.89;57.01;103164.59;5050622;28;20025;-75
2022/03/26 08:58:48;;;;;;;32.53;16.60;;;;;;;11.95;57.06;103164.03;5033018;28;20090;-75
2022/03/26 09:01:14;;;;;;;30.35;16.02;;;;;;;12.07;56.78;103159.31;5049057;28;20029;-75
2022/03/26 09:03:40;;;;;;;33.80;18.77;;;;;;;12.18;57.10;103159.13;5049179;28;20035;-74
2022/03/26 09:06:07;;;;;;;39.33;17.02;;;;;;;12.33;55.49;103163.94;5050627;28;20039;-75
2022/03/26 09:08:33;;;;;;;28.05;13.57;;;;;;;12.44;55.58;103163.72;5048988;28;20027;-75
2022/03/26 09:10:59;;;;;;;32.47;16.05;;;;;;;12.53;54.96;103165.50;5048890;28;20060;-75
2022/03/26 09:13:24;;;;;;;28.02;14.23;;;;;;;12.70;54.26;103164.63;5050323;28;20036;-75
2022/03/26 09:15:50;;;;;;;27.33;13.13;;;;;;;12.79;55.25;103151.34;5050238;28;20060;-75
2022/03/26 09:18:15;;;;;;;30.73;15.57;;;;;;;12.95;53.80;103167.53;5048984;28;20082;-75
2022/03/26 09:20:41;;;;;;;29.45;14.45;;;;;;;13.07;54.56;103166.28;5050127;28;20029;-75
2022/03/26 09:23:06;;;;;;;32.38;16.13;;;;;;;13.14;53.81;103156.59;5050238;28;20493;-75
2022/03/26 09:25:35;;;;;;;30.13;16.20;;;;;;;13.27;55.39;103156.22;5049949;28;20590;-75
2022/03/26 09:28:01;;;;;;;26.77;15.93;;;;;;;13.36;53.21;103154.44;5049806;28;20025;-75
2022/03/26 09:30:27;;;;;;;28.42;15.95;;;;;;;13.47;52.32;103156.03;5049640;28;20186;-75
2022/03/26 09:32:52;;;;;;;28.88;13.50;;;;;;;13.49;51.75;103162.91;5048510;28;20040;-75
2022/03/26 09:35:17;;;;;;;31.65;14.38;;;;;;;13.56;52.24;103163.94;5049517;28;20044;-75
2022/03/26 09:37:44;;;;;;;27.55;13.60;;;;;;;13.66;51.31;103161.16;5049841;28;20787;-75
2022/03/26 09:40:11;;;;;;;28.15;13.18;;;;;;;13.70;51.09;103161.66;5048516;28;20381;-75
2022/03/26 09:42:38;;;;;;;31.50;15.50;;;;;;;13.75;51.64;103168.25;5049705;28;20037;-75
2022/03/26 09:45:06;;;;;;;25.05;13.57;;;;;;;13.82;51.55;103160.38;5049613;28;20032;-75
2022/03/26 09:47:32;;;;;;;29.50;16.20;;;;;;;13.91;50.92;103159.41;5049601;28;20036;-75
2022/03/26 09:49:58;;;;;;;25.08;14.18;;;;;;;13.95;51.00;103165.28;5048863;28;20202;-75
2022/03/26 09:52:23;;;;;;;27.48;14.32;;;;;;;14.09;50.14;103177.25;5049468;28;20086;-75
2022/03/26 09:54:49;;;;;;;29.20;12.48;;;;;;;14.13;50.23;103163.34;5049509;28;20032;-74
2022/03/26 09:57:14;;;;;;;25.63;12.02;;;;;;;14.17;48.34;103158.47;5049432;28;20469;-75
2022/03/26 09:59:39;;;;;;;25.73;13.40;;;;;;;14.19;49.24;103161.84;5031530;28;20029;-75
2022/03/26 10:02:05;;;;;;;22.98;11.60;;;;;;;14.27;48.69;103166.38;5049349;28;20086;-75
2022/03/26 10:04:37;;;;;;;26.65;12.43;;;;;;;14.38;47.90;103166.06;5048071;28;20066;-74
2022/03/26 10:07:04;;;;;;;24.13;12.00;;;;;;;14.41;47.70;103155.84;5047917;28;20082;-75
2022/03/26 10:09:33;;;;;;;27.15;13.80;;;;;;;14.53;47.57;103163.63;5049121;28;20078;-74
2022/03/26 10:12:00;;;;;;;24.92;11.45;;;;;;;14.61;47.29;103159.09;5064448;28;20033;-74
2022/03/26 10:14:57;;;;;;;26.55;10.65;;;;;;;14.68;45.87;103152.03;5049213;28;20035;-74
2022/03/26 10:17:30;;;;;;;20.98;10.45;;;;;;;14.79;45.64;103163.47;5048613;28;20032;-74
2022/03/26 10:19:56;;;;;;;25.25;10.93;;;;;;;14.79;45.79;103158.94;5049153;28;20017;-74
2022/03/26 10:22:32;;;;;;;23.95;10.52;;;;;;;14.79;45.57;103158.09;5048923;28;20029;-75
2022/03/26 10:25:07;;;;;;;24.13;10.10;;;;;;;14.80;45.23;103157.94;5048988;28;20667;-74
2022/03/26 10:27:44;;;;;;;23.52;10.13;;;;;;;14.88;45.34;103149.00;5048960;28;20036;-74
2022/03/26 10:30:15;;;;;;;25.80;12.02;;;;;;;15.00;45.94;103161.09;5048758;28;20060;-74
2022/03/26 10:32:46;;;;;;;21.87;10.83;;;;;;;15.10;45.71;103148.31;5048847;28;20049;-74
2022/03/26 10:35:22;;;;;;;23.63;10.10;;;;;;;15.27;45.76;103157.22;5047566;28;20289;-74
2022/03/26 10:37:59;;;;;;;22.95;10.35;;;;;;;15.33;45.33;103148.47;5048865;28;20021;-74
2022/03/26 10:40:33;;;;;;;29.38;13.05;;;;;;;15.42;46.15;103140.38;5047597;28;20040;-74
2022/03/26 10:43:00;;;;;;;28.63;13.20;;;;;;;15.51;46.46;103145.56;5048799;28;20464;-74
2022/03/26 10:45:27;;;;;;;25.05;11.65;;;;;;;15.53;46.41;103142.69;5048786;28;20435;-74
2022/03/26 10:47:57;;;;;;;29.58;15.05;;;;;;;15.51;46.95;103140.19;5047384;28;20110;-74
2022/03/26 10:50:24;;;;;;;29.20;14.73;;;;;;;15.50;46.19;103134.97;5048715;28;20032;-74
2022/03/26 10:52:53;;;;;;;28.63;16.77;;;;;;;15.61;47.44;103139.94;5047389;28;20040;-74
2022/03/26 10:55:19;;;;;;;27.20;12.82;;;;;;;15.59;46.24;103135.75;5048750;28;20435;-74
2022/03/26 10:57:46;;;;;;;35.83;13.38;;;;;;;15.54;48.46;103128.22;5048579;28;20033;-74
2022/03/26 11:00:17;;;;;;;21.25;11.02;;;;;;;15.66;48.44;103132.19;5048764;28;20032;-74
2022/03/26 11:02:44;;;;;;;21.80;9.77;;;;;;;15.78;48.45;103136.22;5052128;28;20075;-74
2022/03/26 11:05:11;;;;;;;25.15;12.25;;;;;;;15.79;48.14;103137.06;5052651;28;20381;-74
2022/03/26 11:07:37;;;;;;;24.13;12.68;;;;;;;15.76;48.83;103122.09;5051460;28;20039;-74
2022/03/26 11:10:08;;;;;;;23.35;11.10;;;;;;;15.78;48.55;103130.00;5052550;28;20135;-73